Time;durP1;ratioP1;P1;durP2;ratioP2;P2;SDS_P1;SDS_P2;PMS_P1;PMS_P2;Temp;Humidity;BMP_temperature;BMP_pressure;BME280_temperature;BME280_humidity;BME280_pressure;Samples;Min_cycle;Max_cycle;Signal;HPM_P1;HPM_P2
2023/10/17 00:01:01;;;;;;;;;;;;;;;9.24;100.00;101936.94;5244941;28;20101;-69
2023/10/17 00:03:31;;;;;;;32.60;15.50;;;;;;;9.23;100.00;101929.84;5251368;28;19970;-70
2023/10/17 00:06:02;;;;;;;37.72;15.57;;;;;;;9.22;100.00;101920.13;5249805;28;20020;-69
2023/10/17 00:08:33;;;;;;;33.22;15.18;;;;;;;9.17;100.00;101919.66;5251330;28;20027;-69
2023/10/17 00:11:07;;;;;;;30.85;16.40;;;;;;;9.16;100.00;101918.81;5251726;28;20028;-70
2023/10/17 00:13:38;;;;;;;35.55;16.60;;;;;;;9.13;100.00;101907.53;5249232;28;20024;-69
2023/10/17 00:16:11;;;;;;;36.92;17.50;;;;;;;9.12;100.00;101911.19;5253263;28;20032;-70
2023/10/17 00:18:42;;;;;;;31.85;16.15;;;;;;;9.11;100.00;101909.50;5247498;28;20028;-70
2023/10/17 00:21:21;;;;;;;42.50;17.50;;;;;;;9.12;100.00;101913.84;5253054;28;20051;-70
2023/10/17 00:23:52;;;;;;;39.47;18.08;;;;;;;9.15;100.00;101903.75;5250638;28;20074;-69
2023/10/17 00:26:23;;;;;;;39.22;17.45;;;;;;;9.11;100.00;101898.78;5251709;28;20432;-69
2023/10/17 00:28:53;;;;;;;38.85;18.83;;;;;;;9.15;100.00;101903.75;5258601;28;20020;-70
2023/10/17 00:31:23;;;;;;;43.90;18.75;;;;;;;9.18;100.00;101907.97;5252440;28;20032;-70
2023/10/17 00:33:57;;;;;;;40.85;18.27;;;;;;;9.16;100.00;101921.50;5250994;28;20115;-69
2023/10/17 00:36:28;;;;;;;38.70;18.20;;;;;;;9.22;100.00;101930.84;5256951;28;20074;-70
2023/10/17 00:39:08;;;;;;;38.60;18.38;;;;;;;9.21;100.00;101927.31;5258057;28;20011;-69
2023/10/17 00:42:09;;;;;;;52.80;19.17;;;;;;;9.20;100.00;101917.59;5250953;28;20040;-69
2023/10/17 00:44:41;;;;;;;42.30;19.63;;;;;;;9.20;100.00;101908.72;5253188;28;20063;-70
2023/10/17 00:47:13;;;;;;;44.78;20.40;;;;;;;9.18;100.00;101894.59;5256913;28;20455;-70
2023/10/17 00:49:44;;;;;;;44.75;19.73;;;;;;;9.19;100.00;101902.50;5256588;28;20020;-70
2023/10/17 00:52:24;;;;;;;49.17;19.85;;;;;;;9.20;100.00;101911.38;5252128;28;20028;-69
2023/10/17 00:54:59;;;;;;;45.38;20.38;;;;;;;9.21;100.00;101907.72;5250875;28;20028;-69
2023/10/17 00:57:31;;;;;;;46.95;20.70;;;;;;;9.20;100.00;101912.22;5256450;28;20473;-70
2023/10/17 01:00:22;;;;;;;43.17;20.52;;;;;;;9.19;100.00;101905.19;5251450;28;20013;-70
2023/10/17 01:02:58;;;;;;;47.10;20.05;;;;;;;9.18;100.00;101900.78;5243698;28;20048;-70
2023/10/17 01:05:29;;;;;;;46.75;20.75;;;;;;;9.22;100.00;101893.34;5255054;28;20020;-70
2023/10/17 01:07:59;;;;;;;45.00;20.85;;;;;;;9.21;100.00;101894.34;5257541;28;20352;-69
2023/10/17 01:10:30;;;;;;;45.75;20.70;;;;;;;9.26;100.00;101892.97;5253394;28;20023;-70
2023/10/17 01:13:03;;;;;;;49.22;20.83;;;;;;;9.24;100.00;101892.25;5251913;28;20051;-69
2023/10/17 01:15:35;;;;;;;45.65;21.88;;;;;;;9.23;100.00;101882.50;5254388;28;20423;-70
2023/10/17 01:18:06;;;;;;;48.95;20.63;;;;;;;9.26;100.00;101881.41;5253619;28;20025;-70
2023/10/17 01:20:36;;;;;;;47.22;21.90;;;;;;;9.27;100.00;101872.38;5249348;28;20024;-70
2023/10/17 01:23:07;;;;;;;46.28;20.17;;;;;;;9.30;100.00;101869.44;5251948;28;20017;-70
2023/10/17 01:25:41;;;;;;;49.90;21.88;;;;;;;9.31;100.00;101871.13;5250281;28;20401;-69
2023/10/17 01:28:12;;;;;;;45.47;20.48;;;;;;;9.30;100.00;101869.44;5253139;28;20054;-69
2023/10/17 01:30:42;;;;;;;47.97;20.10;;;;;;;9.31;100.00;101869.31;5256354;28;20038;-70
2023/10/17 01:33:13;;;;;;;46.67;20.25;;;;;;;9.34;100.00;101866.38;5252731;28;20027;-70
2023/10/17 01:35:44;;;;;;;39.47;18.98;;;;;;;9.32;100.00;101862.13;5248663;28;20013;-69
2023/10/17 01:38:17;;;;;;;41.40;19.95;;;;;;;9.31;100.00;101868.47;5253486;28;20509;-69
2023/10/17 01:40:47;;;;;;;45.65;20.20;;;;;;;9.30;100.00;101870.28;5251674;28;20016;-70
2023/10/17 01:43:18;;;;;;;46.90;20.90;;;;;;;9.31;100.00;101874.66;5256376;28;20473;-70
2023/10/17 01:45:50;;;;;;;40.42;17.98;;;;;;;9.29;100.00;101882.00;5253677;28;20529;-69
2023/10/17 01:48:21;;;;;;;42.03;19.98;;;;;;;9.29;100.00;101868.59;5244191;28;20098;-70
2023/10/17 01:50:53;;;;;;;41.78;19.15;;;;;;;9.30;100.00;101861.41;5249163;28;20012;-70
2023/10/17 01:53:25;;;;;;;42.20;19.45;;;;;;;9.38;100.00;101858.91;5253406;28;20477;-69
2023/10/17 01:56:07;;;;;;;40.63;19.23;;;;;;;9.30;100.00;101850.72;5255765;28;20452;-69
2023/10/17 01:58:48;;;;;;;42.78;19.10;;;;;;;9.33;100.00;101845.91;5258707;28;20389;-70
2023/10/17 02:01:25;;;;;;;41.30;19.63;;;;;;;9.32;100.00;101844.22;5251253;28;20024;-70
2023/10/17 02:04:05;;;;;;;42.28;19.98;;;;;;;9.36;100.00;101842.13;5253303;28;20028;-69
2023/10/17 02:06:36;;;;;;;37.20;19.05;;;;;;;9.33;100.00;101831.69;5251352;28;20023;-69
2023/10/17 02:09:22;;;;;;;51.17;18.90;;;;;;;9.34;100.00;101826.22;5259175;28;20270;-70
2023/10/17 02:14:40;;;;;;;40.10;17.50;;;;;;;9.31;100.00;101818.44;5255318;28;20036;-70
2023/10/17 02:17:15;;;;;;;34.38;15.82;;;;;;;9.31;100.00;101814.91;5258990;28;20421;-69
2023/10/17 02:19:47;;;;;;;;;;;;;;;9.36;100.00;101817.19;5256831;28;20052;-70
2023/10/17 02:22:18;;;;;;;34.28;15.90;;;;;;;9.33;100.00;101797.69;5262612;28;20380;-69
2023/10/17 02:24:48;;;;;;;32.97;15.27;;;;;;;9.38;100.00;101807.16;5258964;28;20031;-70
2023/10/17 02:27:21;;;;;;;34.80;17.00;;;;;;;9.39;100.00;101816.91;5254204;28;20112;-70
2023/10/17 02:29:53;;;;;;;32.08;15.85;;;;;;;9.35;100.00;101832.41;5257696;28;20028;-70
2023/10/17 02:32:23;;;;;;;31.33;14.60;;;;;;;9.39;100.00;101831.16;5252877;28;20027;-70
2023/10/17 02:34:54;;;;;;;31.00;14.38;;;;;;;9.42;100.00;101832.72;5258434;28;20388;-70
2023/10/17 02:37:29;;;;;;;34.90;16.45;;;;;;;9.40;100.00;101832.84;5258581;28;20030;-70
2023/10/17 02:40:12;;;;;;;30.25;14.93;;;;;;;9.36;100.00;101831.41;5248235;28;20016;-70
2023/10/17 02:42:47;;;;;;;30.63;14.52;;;;;;;9.34;100.00;101834.25;5251504;28;20016;-69
2023/10/17 02:45:25;;;;;;;28.73;15.10;;;;;;;9.37;100.00;101818.88;5256845;28;20027;-70
2023/10/17 02:47:57;;;;;;;28.98;14.70;;;;;;;9.37;100.00;101810.84;5254880;28;20032;-70
2023/10/17 02:53:02;;;;;;;28.00;14.30;;;;;;;9.36;100.00;101798.44;5251682;28;20025;-70
2023/10/17 02:55:32;;;;;;;27.77;13.57;;;;;;;9.40;100.00;101807.91;5254455;28;20389;-70
2023/10/17 02:58:03;;;;;;;23.42;13.25;;;;;;;9.40;100.00;101806.06;5251074;28;20027;-69
2023/10/17 03:00:34;;;;;;;25.13;13.23;;;;;;;9.36;100.00;101809.16;5256955;28;20421;-70
2023/10/17 03:05:54;;;;;;;24.38;11.90;;;;;;;9.33;100.00;101810.25;5250040;28;20392;-70
2023/10/17 03:08:24;;;;;;;24.67;13.00;;;;;;;9.32;100.00;101819.28;5255022;28;20028;-70
2023/10/17 03:10:58;;;;;;;25.13;12.40;;;;;;;9.32;100.00;101817.44;5251276;28;20066;-70
2023/10/17 03:13:42;;;;;;;28.75;13.05;;;;;;;9.31;100.00;101818.44;5253083;28;20102;-69
2023/10/17 03:16:27;;;;;;;25.23;12.13;;;;;;;9.33;100.00;101821.81;5256342;28;20574;-71
2023/10/17 03:18:58;;;;;;;26.50;13.35;;;;;;;9.28;100.00;101825.88;5250016;28;20461;-70
2023/10/17 03:21:34;;;;;;;26.65;12.85;;;;;;;9.23;100.00;101833.47;5249309;28;20039;-71
2023/10/17 03:24:05;;;;;;;27.45;12.65;;;;;;;9.24;100.00;101819.97;5254397;28;20012;-70
2023/10/17 03:26:54;;;;;;;25.27;11.40;;;;;;;9.20;100.00;101828.38;5251991;28;20043;-69
2023/10/17 03:29:24;;;;;;;24.48;11.82;;;;;;;9.22;100.00;101837.97;5246968;28;20132;-70
2023/10/17 03:31:58;;;;;;;31.65;13.48;;;;;;;9.21;100.00;101836.28;5250991;28;20070;-70
2023/10/17 03:34:37;;;;;;;27.45;12.27;;;;;;;9.17;100.00;101834.00;5255243;28;20401;-70
2023/10/17 03:37:26;;;;;;;22.55;12.45;;;;;;;9.12;100.00;101834.41;5259005;28;20099;-70
2023/10/17 03:40:16;;;;;;;22.58;12.60;;;;;;;9.10;100.00;101832.84;5250837;28;20020;-70
2023/10/17 03:42:53;;;;;;;26.80;12.68;;;;;;;9.06;100.00;101840.28;5253697;28;20028;-70
2023/10/17 03:45:26;;;;;;;30.88;11.98;;;;;;;9.05;100.00;101842.13;5249689;28;20028;-70
2023/10/17 03:47:59;;;;;;;25.83;13.23;;;;;;;9.07;100.00;101844.66;5255170;28;20016;-69
2023/10/17 03:50:31;;;;;;;27.10;13.30;;;;;;;9.07;100.00;101840.16;5253978;28;20042;-71
2023/10/17 03:53:14;;;;;;;30.35;12.75;;;;;;;9.06;100.00;101838.44;5258907;28;20477;-70
2023/10/17 03:55:48;;;;;;;22.35;12.30;;;;;;;9.07;100.00;101834.78;5253031;28;20375;-69
2023/10/17 03:58:43;;;;;;;28.15;12.98;;;;;;;9.05;100.00;101847.47;5251752;28;20024;-70
2023/10/17 04:01:18;;;;;;;27.13;13.03;;;;;;;9.05;100.00;101844.78;5250296;28;20157;-70
2023/10/17 04:03:56;;;;;;;25.38;12.75;;;;;;;9.06;100.00;101845.63;5250454;28;20052;-70
2023/10/17 04:06:39;;;;;;;28.85;12.60;;;;;;;9.06;100.00;101832.25;5253408;28;20027;-70
2023/10/17 04:09:17;;;;;;;29.42;12.35;;;;;;;9.02;100.00;101831.66;5252220;28;20082;-70
2023/10/17 04:11:49;;;;;;;27.83;12.95;;;;;;;9.01;100.00;101831.81;5252870;28;20371;-70
2023/10/17 04:14:21;;;;;;;23.13;12.40;;;;;;;9.04;100.00;101839.59;5252181;28;20137;-70
2023/10/17 04:16:52;;;;;;;26.52;12.27;;;;;;;9.00;100.00;101836.31;5247462;28;20028;-70
2023/10/17 04:19:23;;;;;;;30.92;12.82;;;;;;;8.99;100.00;101831.94;5249870;28;20020;-70
2023/10/17 04:24:34;;;;;;;26.80;13.00;;;;;;;8.95;100.00;101829.66;5254886;28;20027;-70
2023/10/17 04:27:24;;;;;;;25.75;13.10;;;;;;;8.92;100.00;101832.59;5250776;28;20020;-69
2023/10/17 04:30:01;;;;;;;23.52;12.40;;;;;;;8.91;100.00;101836.25;5251718;28;20021;-69
2023/10/17 04:32:38;;;;;;;23.65;11.73;;;;;;;8.89;100.00;101833.72;5253714;28;20020;-70
2023/10/17 04:35:08;;;;;;;26.55;14.00;;;;;;;8.87;100.00;101832.13;5251955;28;20103;-69
2023/10/17 04:37:44;;;;;;;25.38;13.10;;;;;;;8.87;100.00;101824.09;5252560;28;20237;-69
2023/10/17 04:40:28;;;;;;;26.48;13.93;;;;;;;8.88;100.00;101825.78;5250774;28;20023;-69
2023/10/17 04:46:08;;;;;;;26.23;12.37;;;;;;;8.86;100.00;101811.72;5250854;28;20044;-70
2023/10/17 04:48:46;;;;;;;29.42;11.88;;;;;;;8.86;100.00;101803.69;5252403;28;20889;-70
2023/10/17 04:53:48;;;;;;;22.75;11.75;;;;;;;8.87;100.00;101787.50;5251762;28;20028;-70
2023/10/17 04:56:37;;;;;;;22.52;11.27;;;;;;;8.86;100.00;101784.94;5256515;28;20073;-70
2023/10/17 04:59:09;;;;;;;22.13;9.82;;;;;;;8.89;100.00;101776.66;5253876;28;20369;-70
2023/10/17 05:01:46;;;;;;;27.38;10.65;;;;;;;8.95;100.00;101773.47;5251268;28;20039;-69
2023/10/17 06:16:49;;;;;;;21.05;9.20;;;;;;;9.00;100.00;101777.44;5249830;28;20473;-69
2023/10/17 06:17:27;;;;;;;18.40;8.77;;;;;;;8.80;100.00;101762.25;5250481;28;20028;-70
2023/10/17 06:19:58;;;;;;;17.52;8.52;;;;;;;8.74;100.00;101768.97;5254813;28;20337;-70
2023/10/17 06:23:16;;;;;;;14.77;8.48;;;;;;;8.78;100.00;101772.22;5257784;28;20074;-70
2023/10/17 06:26:05;;;;;;;17.20;8.68;;;;;;;8.81;100.00;101775.50;5259096;28;20024;-70
2023/10/17 06:33:43;;;;;;;15.82;7.78;;;;;;;8.78;100.00;101785.59;5254886;28;20485;-69
2023/10/17 06:36:24;;;;;;;17.48;8.48;;;;;;;8.78;100.00;101785.59;5255224;28;20031;-70
2023/10/17 06:38:55;;;;;;;17.75;7.82;;;;;;;8.81;100.00;101780.84;5253487;28;20514;-70
2023/10/17 06:41:38;;;;;;;13.95;8.13;;;;;;;8.86;100.00;101779.59;5253273;28;20031;-70
2023/10/17 06:44:10;;;;;;;13.18;7.65;;;;;;;8.87;100.00;101774.09;5253333;28;20017;-70
2023/10/17 06:46:48;;;;;;;16.80;7.90;;;;;;;8.88;100.00;101781.16;5251053;28;20028;-70
2023/10/17 06:54:50;;;;;;;18.45;7.63;;;;;;;8.99;100.00;101786.44;5254731;28;20028;-70
2023/10/17 06:57:23;;;;;;;14.15;7.55;;;;;;;9.00;100.00;101785.47;5259073;28;20105;-69
2023/10/17 07:00:00;;;;;;;14.18;7.78;;;;;;;9.03;100.00;101787.00;5257130;28;20456;-70
2023/10/17 07:02:34;;;;;;;19.50;8.30;;;;;;;9.06;100.00;101784.91;5255352;28;20020;-71
2023/10/17 07:05:05;;;;;;;15.70;7.72;;;;;;;9.12;100.00;101774.66;5255559;28;20054;-70
2023/10/17 07:07:40;;;;;;;15.27;7.47;;;;;;;9.13;100.00;101773.66;5255161;28;20095;-70
2023/10/17 07:10:24;;;;;;;12.88;7.85;;;;;;;9.16;100.00;101776.09;5254490;28;20082;-70
2023/10/17 07:13:32;;;;;;;14.75;7.65;;;;;;;9.17;100.00;101777.78;5254563;28;20385;-70
2023/10/17 07:16:12;;;;;;;18.67;7.20;;;;;;;9.28;100.00;101761.59;5255402;28;20359;-70
2023/10/17 07:18:44;;;;;;;19.55;6.88;;;;;;;9.32;100.00;101768.41;5251505;28;20029;-70
2023/10/17 07:21:15;;;;;;;14.77;6.63;;;;;;;9.32;100.00;101763.03;5254976;28;20035;-70
2023/10/17 07:23:48;;;;;;;12.57;6.60;;;;;;;9.40;100.00;101765.91;5252356;28;20027;-70
2023/10/17 07:26:24;;;;;;;21.00;7.15;;;;;;;9.40;100.00;101765.06;5253129;28;20497;-70
2023/10/17 07:28:55;;;;;;;13.60;6.47;;;;;;;9.45;100.00;101768.16;5250974;28;20036;-70
2023/10/17 07:31:28;;;;;;;9.10;6.22;;;;;;;9.48;100.00;101774.06;5254458;28;20024;-71
2023/10/17 07:34:16;;;;;;;13.68;6.10;;;;;;;9.54;100.00;101762.84;5254133;28;20031;-70
2023/10/17 07:36:51;;;;;;;14.57;6.30;;;;;;;9.58;100.00;101772.28;5253832;28;20037;-70
2023/10/17 07:39:22;;;;;;;15.10;6.72;;;;;;;9.62;100.00;101775.53;5245482;28;20020;-70
2023/10/17 07:41:53;;;;;;;11.20;5.90;;;;;;;9.70;100.00;101773.03;5250073;28;20055;-70
2023/10/17 07:44:26;;;;;;;11.88;6.38;;;;;;;9.76;100.00;101785.88;5254015;28;20047;-70
2023/10/17 07:49:37;;;;;;;14.20;5.68;;;;;;;9.84;100.00;101780.66;5250902;28;20369;-70
2023/10/17 07:52:12;;;;;;;14.23;5.88;;;;;;;9.89;100.00;101784.75;5251720;28;20464;-70
2023/10/17 07:54:57;;;;;;;10.95;5.47;;;;;;;9.88;100.00;101794.63;5251340;28;20382;-70
2023/10/17 07:57:36;;;;;;;17.80;6.35;;;;;;;9.95;100.00;101797.63;5250936;28;20358;-71
2023/10/17 08:00:24;;;;;;;12.52;5.28;;;;;;;9.95;100.00;101793.09;5254753;28;20016;-70
2023/10/17 08:03:00;;;;;;;11.43;5.57;;;;;;;10.06;100.00;101798.31;5250695;28;20169;-70
2023/10/17 08:05:37;;;;;;;14.13;5.75;;;;;;;10.04;100.00;101800.31;5251648;28;20409;-70
2023/10/17 08:08:13;;;;;;;13.70;5.65;;;;;;;10.07;100.00;101791.97;5254973;28;20024;-70
2023/10/17 08:10:45;;;;;;;13.05;5.40;;;;;;;10.06;100.00;101795.63;5252162;28;20081;-70
2023/10/17 08:13:19;;;;;;;13.23;5.38;;;;;;;10.04;100.00;101791.38;5252867;28;20472;-70
2023/10/17 08:15:53;;;;;;;16.38;5.60;;;;;;;10.07;100.00;101789.28;5250881;28;20024;-70
2023/10/17 08:18:27;;;;;;;12.07;5.30;;;;;;;10.06;100.00;101787.59;5246243;28;20028;-70
2023/10/17 08:23:34;;;;;;;12.60;5.75;;;;;;;10.10;100.00;101790.84;5252496;28;20044;-70
2023/10/17 08:26:10;;;;;;;21.63;6.20;;;;;;;10.17;100.00;101791.13;5252862;28;20031;-70
2023/10/17 08:28:46;;;;;;;13.43;4.85;;;;;;;10.25;100.00;101784.13;5251620;28;20028;-70
2023/10/17 08:31:23;;;;;;;12.45;5.68;;;;;;;10.29;100.00;101782.84;5253104;28;20081;-70
2023/10/17 08:39:31;;;;;;;13.68;4.90;;;;;;;10.45;100.00;101773.38;5251123;28;20127;-70
2023/10/17 08:42:14;;;;;;;8.63;4.05;;;;;;;10.54;100.00;101776.06;5251003;28;20024;-70
2023/10/17 08:44:50;;;;;;;11.35;4.93;;;;;;;10.63;100.00;101769.78;5250396;28;20029;-70
2023/10/17 08:47:25;;;;;;;10.68;5.25;;;;;;;10.76;100.00;101782.06;5245174;28;20058;-70
2023/10/17 08:50:03;;;;;;;8.52;4.80;;;;;;;10.91;100.00;101779.78;5252231;28;20036;-70
2023/10/17 08:52:35;;;;;;;9.23;4.97;;;;;;;10.92;100.00;101776.94;5248416;28;20107;-70
2023/10/17 08:55:06;;;;;;;13.10;4.88;;;;;;;10.98;100.00;101780.88;5252745;28;20112;-71
2023/10/17 08:57:37;;;;;;;8.68;4.70;;;;;;;11.06;100.00;101781.00;5250330;28;20572;-71
2023/10/17 09:02:48;;;;;;;11.43;4.40;;;;;;;11.11;100.00;101771.50;5250780;28;20099;-70
2023/10/17 09:05:25;;;;;;;9.98;4.55;;;;;;;11.24;100.00;101762.25;5248666;28;20185;-70
2023/10/17 09:07:56;;;;;;;10.15;4.88;;;;;;;11.32;100.00;101770.44;5247946;28;20385;-71
2023/10/17 09:10:29;;;;;;;13.60;4.35;;;;;;;11.68;100.00;101769.50;5252459;28;20021;-71
2023/10/17 09:15:57;;;;;;;8.57;3.90;;;;;;;12.72;100.00;101757.38;5250359;28;20036;-70
2023/10/17 09:18:28;;;;;;;7.90;4.07;;;;;;;13.35;100.00;101755.19;5248538;28;20020;-70
2023/10/17 09:21:04;;;;;;;15.50;5.18;;;;;;;13.83;100.00;101752.81;5251108;28;20029;-70
2023/10/17 09:23:37;;;;;;;11.27;6.25;;;;;;;14.11;100.00;101767.72;5247947;28;20023;-70
2023/10/17 09:26:10;;;;;;;7.00;3.50;;;;;;;14.41;100.00;101768.91;5251253;28;20039;-70
2023/10/17 09:28:40;;;;;;;8.20;3.63;;;;;;;14.70;100.00;101768.38;5250460;28;20021;-71
2023/10/17 09:31:17;;;;;;;8.40;3.30;;;;;;;15.02;100.00;101762.09;5251019;28;20043;-70
2023/10/17 09:33:50;;;;;;;12.13;3.55;;;;;;;15.11;100.00;101762.06;5250250;28;20280;-71
2023/10/17 09:36:21;;;;;;;8.65;2.97;;;;;;;15.46;100.00;101766.13;5251849;28;20053;-71
2023/10/17 09:38:54;;;;;;;6.85;2.92;;;;;;;15.52;100.00;101766.31;5250287;28;20475;-71
2023/10/17 09:41:26;;;;;;;6.60;3.58;;;;;;;15.17;100.00;101775.75;5250050;28;20103;-71
2023/10/17 09:43:56;;;;;;;9.38;3.33;;;;;;;14.98;100.00;101770.72;5248549;28;20021;-72
2023/10/17 09:46:27;;;;;;;6.60;3.58;;;;;;;14.97;100.00;101764.47;5253855;28;20492;-72
2023/10/17 09:49:00;;;;;;;6.07;2.60;;;;;;;14.94;100.00;101756.69;5248116;28;20482;-72
2023/10/17 09:51:33;;;;;;;5.57;2.90;;;;;;;15.03;100.00;101749.44;5252158;28;20020;-72
2023/10/17 09:54:05;;;;;;;4.70;2.85;;;;;;;14.99;100.00;101756.19;5248283;28;20496;-72
2023/10/17 09:56:40;;;;;;;5.18;2.80;;;;;;;14.85;100.00;101749.63;5247984;28;20065;-72
2023/10/17 09:59:16;;;;;;;7.22;2.75;;;;;;;14.85;100.00;101738.81;5245035;28;20048;-72
2023/10/17 10:01:50;;;;;;;8.68;3.35;;;;;;;14.80;100.00;101735.78;5245689;28;20103;-73
2023/10/17 10:04:21;;;;;;;7.53;3.33;;;;;;;14.78;100.00;101735.13;5245992;28;20021;-71
2023/10/17 10:07:22;;;;;;;10.38;3.13;;;;;;;14.80;100.00;101734.97;5242923;28;20359;-73
2023/10/17 10:09:53;;;;;;;8.02;2.70;;;;;;;14.74;100.00;101741.88;5242465;28;20059;-71
2023/10/17 10:12:23;;;;;;;4.38;2.47;;;;;;;14.73;100.00;101740.22;5245883;28;20099;-72
2023/10/17 10:14:58;;;;;;;6.25;2.85;;;;;;;14.83;100.00;101743.56;5242330;28;20021;-72
2023/10/17 10:17:44;;;;;;;6.95;3.40;;;;;;;14.78;100.00;101740.53;5246160;28;20021;-71
2023/10/17 10:20:15;;;;;;;5.32;2.33;;;;;;;15.02;100.00;101735.06;5247716;28;20027;-71
2023/10/17 10:22:50;;;;;;;5.55;2.60;;;;;;;15.01;100.00;101743.38;5245846;28;20042;-71
2023/10/17 10:25:22;;;;;;;5.20;2.85;;;;;;;14.82;100.00;101727.53;5245765;28;20107;-71
2023/10/17 10:28:25;;;;;;;6.38;2.78;;;;;;;14.92;100.00;101728.19;5247088;28;20023;-71
2023/10/17 10:30:56;;;;;;;5.38;2.70;;;;;;;14.94;100.00;101721.56;5240843;28;20489;-72
2023/10/17 10:33:30;;;;;;;5.25;2.70;;;;;;;14.94;100.00;101726.97;5249629;28;20259;-71
2023/10/17 10:36:01;;;;;;;6.85;2.60;;;;;;;14.93;100.00;101719.91;5249720;28;20596;-71
2023/10/17 10:38:31;;;;;;;6.50;2.58;;;;;;;14.96;100.00;101710.59;5249524;28;20103;-72
2023/10/17 10:41:06;;;;;;;6.85;2.60;;;;;;;15.01;100.00;101705.53;5244809;28;20064;-71
2023/10/17 10:43:36;;;;;;;5.93;2.63;;;;;;;14.92;100.00;101723.63;5245741;28;20059;-72
2023/10/17 10:46:08;;;;;;;6.10;2.90;;;;;;;14.96;100.00;101727.66;5237014;28;20715;-72
2023/10/17 10:48:46;;;;;;;5.90;2.42;;;;;;;15.13;100.00;101723.03;5247409;28;20505;-71
2023/10/17 10:51:18;;;;;;;5.78;2.13;;;;;;;15.33;100.00;101720.75;5248062;28;20021;-72
2023/10/17 10:53:54;;;;;;;5.65;2.78;;;;;;;15.42;100.00;101714.31;5244883;28;20020;-72
2023/10/17 10:56:25;;;;;;;7.00;2.40;;;;;;;15.57;100.00;101722.50;5247606;28;20107;-72
2023/10/17 10:58:55;;;;;;;5.35;2.50;;;;;;;15.54;100.00;101712.03;5245244;28;20099;-72
2023/10/17 11:01:27;;;;;;;5.95;2.15;;;;;;;15.39;100.00;101709.22;5244602;28;20044;-72
2023/10/17 11:03:58;;;;;;;4.13;2.15;;;;;;;15.38;100.00;101701.31;5249340;28;20021;-72
2023/10/17 11:06:29;;;;;;;6.10;1.90;;;;;;;15.38;100.00;101709.41;5250513;28;20497;-72
2023/10/17 11:08:59;;;;;;;6.60;2.28;;;;;;;15.36;100.00;101701.50;5247696;28;20020;-72
2023/10/17 11:11:30;;;;;;;8.35;2.53;;;;;;;15.43;100.00;101696.22;5251000;28;20028;-72
2023/10/17 11:14:01;;;;;;;9.13;2.63;;;;;;;15.59;100.00;101693.41;5246483;28;20021;-72
2023/10/17 11:16:32;;;;;;;4.50;1.95;;;;;;;15.87;100.00;101682.94;5250822;28;20028;-72
2023/10/17 11:19:02;;;;;;;6.80;2.47;;;;;;;16.05;100.00;101679.91;5245601;28;20036;-72
2023/10/17 11:21:33;;;;;;;3.33;2.30;;;;;;;15.96;100.00;101681.84;5250333;28;20020;-71
2023/10/17 11:24:06;;;;;;;6.22;2.50;;;;;;;15.78;100.00;101674.03;5246230;28;20489;-72
2023/10/17 11:26:39;;;;;;;6.38;2.10;;;;;;;15.78;100.00;101671.31;5250236;28;20021;-72
2023/10/17 11:29:10;;;;;;;7.78;2.50;;;;;;;15.65;100.00;101662.13;5246377;28;20032;-72
2023/10/17 11:31:41;;;;;;;6.57;1.90;;;;;;;15.62;100.00;101663.31;5247339;28;20136;-72
2023/10/17 11:34:12;;;;;;;6.10;1.90;;;;;;;15.72;100.00;101660.41;5250407;28;20231;-72
2023/10/17 11:36:47;;;;;;;4.93;1.80;;;;;;;15.67;100.00;101666.34;5244966;28;20126;-72
2023/10/17 11:39:19;;;;;;;3.75;2.00;;;;;;;15.61;100.00;101656.19;5248039;28;20073;-71
2023/10/17 11:41:59;;;;;;;4.75;1.77;;;;;;;15.65;100.00;101660.25;5244737;28;20029;-72
2023/10/17 11:44:31;;;;;;;5.82;2.00;;;;;;;15.82;100.00;101657.44;5239090;28;20058;-72
2023/10/17 11:47:20;;;;;;;4.15;1.80;;;;;;;15.87;100.00;101653.19;5249042;28;20026;-72
2023/10/17 11:49:52;;;;;;;4.40;1.85;;;;;;;15.68;100.00;101649.09;5236965;28;20033;-72
2023/10/17 11:52:24;;;;;;;5.75;2.00;;;;;;;15.57;100.00;101646.78;5249082;28;20043;-72
2023/10/17 11:55:00;;;;;;;4.18;1.90;;;;;;;15.31;100.00;101646.25;5245866;28;20050;-72
2023/10/17 11:57:32;;;;;;;4.30;1.83;;;;;;;15.26;100.00;101644.94;5245023;28;20020;-71
2023/10/17 12:00:06;;;;;;;3.25;2.08;;;;;;;15.37;100.00;101637.44;5245731;28;20047;-72
2023/10/17 12:02:41;;;;;;;3.28;1.90;;;;;;;15.45;100.00;101630.09;5244069;28;20020;-72
2023/10/17 12:05:18;;;;;;;9.98;1.90;;;;;;;15.61;100.00;101625.59;5245539;28;20078;-72
2023/10/17 12:07:53;;;;;;;3.50;1.85;;;;;;;15.71;100.00;101623.53;5244280;28;20047;-72
2023/10/17 12:10:24;;;;;;;5.95;1.80;;;;;;;15.81;100.00;101613.28;5246658;28;20041;-72
2023/10/17 12:12:58;;;;;;;3.90;1.88;;;;;;;15.88;100.00;101602.59;5246283;28;20017;-72
2023/10/17 12:15:29;;;;;;;5.97;2.10;;;;;;;15.81;100.00;101605.19;5245000;28;20024;-72
2023/10/17 12:17:59;;;;;;;10.68;1.83;;;;;;;15.83;100.00;101600.44;5245955;28;20032;-73
2023/10/17 12:20:30;;;;;;;3.35;1.92;;;;;;;15.85;100.00;101595.69;5244948;28;20373;-72
2023/10/17 12:23:01;;;;;;;8.68;2.28;;;;;;;15.70;100.00;101586.69;5245463;28;20024;-72
2023/10/17 12:25:32;;;;;;;4.78;2.10;;;;;;;15.73;100.00;101600.69;5244433;28;20021;-72
2023/10/17 12:28:06;;;;;;;7.43;1.63;;;;;;;15.87;100.00;101590.94;5248782;28;20509;-72
2023/10/17 12:30:36;;;;;;;9.63;1.90;;;;;;;15.89;100.00;101590.75;5245720;28;20028;-72
2023/10/17 12:33:08;;;;;;;2.53;1.70;;;;;;;15.90;100.00;101598.69;5247573;28;20048;-71
2023/10/17 12:35:46;;;;;;;7.18;1.83;;;;;;;16.00;100.00;101591.16;5248437;28;20016;-72
2023/10/17 12:38:25;;;;;;;6.95;2.30;;;;;;;15.97;100.00;101588.81;5250972;28;20382;-72
2023/10/17 12:40:55;;;;;;;2.05;1.42;;;;;;;15.84;100.00;101593.16;5235532;28;20070;-71
2023/10/17 12:43:27;;;;;;;5.25;1.60;;;;;;;15.68;100.00;101586.88;5245861;28;20027;-72
2023/10/17 12:45:57;;;;;;;4.60;1.40;;;;;;;15.56;100.00;101580.16;5247845;28;20020;-72
2023/10/17 12:48:28;;;;;;;2.85;1.73;;;;;;;15.63;100.00;101575.75;5250618;28;20020;-72
2023/10/17 12:50:58;;;;;;;3.42;1.80;;;;;;;15.77;100.00;101571.44;5246036;28;20086;-72
2023/10/17 12:53:29;;;;;;;6.20;1.58;;;;;;;15.78;100.00;101573.94;5248740;28;20027;-72
2023/10/17 12:55:59;;;;;;;2.38;1.45;;;;;;;15.77;100.00;101574.97;5247033;28;20019;-72
2023/10/17 12:58:32;;;;;;;4.93;1.88;;;;;;;15.80;100.00;101569.16;5245098;28;20012;-72
2023/10/17 13:01:04;;;;;;;6.78;2.00;;;;;;;15.72;100.00;101579.25;5247655;28;20051;-72
2023/10/17 13:03:37;;;;;;;3.97;1.58;;;;;;;15.61;100.00;101572.34;5246407;28;20021;-72
2023/10/17 13:06:09;;;;;;;3.60;1.45;;;;;;;15.67;100.00;101566.25;5245980;28;20290;-72
2023/10/17 13:08:40;;;;;;;3.67;1.55;;;;;;;15.62;100.00;101567.81;5248635;28;20028;-72
2023/10/17 13:11:10;;;;;;;3.65;1.95;;;;;;;15.59;100.00;101566.28;5246081;28;20632;-71
2023/10/17 13:13:41;;;;;;;4.15;1.70;;;;;;;15.72;100.00;101555.75;5244548;28;20020;-72
2023/10/17 13:16:11;;;;;;;7.32;1.77;;;;;;;15.81;100.00;101559.19;5247165;28;20020;-71
2023/10/17 13:18:42;;;;;;;6.30;1.52;;;;;;;15.86;100.00;101569.47;5246040;28;20112;-72
2023/10/17 13:21:14;;;;;;;7.35;1.52;;;;;;;16.00;100.00;101563.25;5248923;28;20020;-72
2023/10/17 13:23:44;;;;;;;4.78;1.85;;;;;;;16.11;100.00;101548.41;5249157;28;20586;-72
2023/10/17 13:26:15;;;;;;;2.15;1.45;;;;;;;16.08;100.00;101546.09;5248122;28;20047;-72
2023/10/17 13:28:47;;;;;;;4.38;1.63;;;;;;;16.07;100.00;101539.84;5245477;28;20016;-72
2023/10/17 13:31:18;;;;;;;2.67;1.38;;;;;;;15.97;100.00;101539.28;5247671;28;20036;-72
2023/10/17 13:33:50;;;;;;;3.58;1.88;;;;;;;15.82;100.00;101531.13;5246392;28;20008;-72
2023/10/17 13:36:21;;;;;;;4.18;1.80;;;;;;;15.88;100.00;101535.81;5245979;28;20354;-72
2023/10/17 13:38:52;;;;;;;3.25;1.30;;;;;;;15.89;100.00;101531.22;5244693;28;20044;-72
2023/10/17 13:41:25;;;;;;;8.13;1.60;;;;;;;16.01;100.00;101519.78;5246253;28;20028;-72